KCGI/CGI METAR and TAF weather

Enter ICAO airport designator
Station Type Date Time Source
KCGI METAR 2019/12/13 00:53 UTC NOAA

KCGI 130053Z AUTO 12003KT 10SM CLR 01/M02 A3018 RMK AO2 SLP222 T00061022


Station Type Date Time Source
KCGI Decoded METAR 2019/12/13 00:53 UTC NOAA

CAPE GIRARDEAU REGIONAL, MO, United States (KCGI) 37-14N 089-35W 102M
Dec 12, 2019 - 07:53 PM EST / 2019.12.13 0053 UTC
Wind: from the ESE (120 degrees) at 3 MPH (3 KT):0
Visibility: 10 mile(s):0
Sky conditions: clear
Temperature: 33.1 F (0.6 C)
Dew Point: 28.0 F (-2.2 C)
Relative Humidity: 81%
Pressure (altimeter): 30.18 in. Hg (1022 hPa)
ob: KCGI 130053Z AUTO 12003KT 10SM CLR 01/M02 A3018 RMK AO2 SLP222 T00061022
cycle: 1

Station Type Date Time Source
KCGI TAF 2019/12/12 18:22 UTC NOAA

TAF KCGI 121720Z 1218/1318 17008KT P6SM BKN250
FM130000 16005KT P6SM SCT100 BKN250
FM130500 17004KT P6SM SCT040 BKN100
FM131200 17005KT P6SM BKN040

Example: see airport list